sensor_id;sensor_type;location;lat;lon;timestamp;pressure;altitude;pressure_sealevel;temperature;humidity
3968;BME280;9221;42.646;23.380;2023-05-09T00:01:29;94809.69;;;15.53;79.55
3968;BME280;9221;42.646;23.380;2023-05-09T00:03:56;94811.38;;;15.54;79.52
3968;BME280;9221;42.646;23.380;2023-05-09T00:06:22;94781.56;;;15.36;79.25
3968;BME280;9221;42.646;23.380;2023-05-09T00:08:47;94756.38;;;15.23;79.11
3968;BME280;9221;42.646;23.380;2023-05-09T00:11:13;94755.31;;;15.10;78.99
3968;BME280;9221;42.646;23.380;2023-05-09T00:13:38;94805.91;;;15.48;78.86
3968;BME280;9221;42.646;23.380;2023-05-09T00:16:04;94792.50;;;15.41;78.99
3968;BME280;9221;42.646;23.380;2023-05-09T00:18:30;94798.13;;;15.46;78.76
3968;BME280;9221;42.646;23.380;2023-05-09T00:20:55;94813.88;;;15.48;79.28
3968;BME280;9221;42.646;23.380;2023-05-09T00:23:21;94807.09;;;15.45;79.44
3968;BME280;9221;42.646;23.380;2023-05-09T00:25:47;94760.75;;;15.16;79.37
3968;BME280;9221;42.646;23.380;2023-05-09T00:28:12;94766.66;;;15.27;79.32
3968;BME280;9221;42.646;23.380;2023-05-09T00:30:38;94738.19;;;15.12;78.83
3968;BME280;9221;42.646;23.380;2023-05-09T00:33:03;94733.56;;;15.06;78.90
3968;BME280;9221;42.646;23.380;2023-05-09T00:35:29;94814.06;;;15.46;78.92
3968;BME280;9221;42.646;23.380;2023-05-09T00:37:56;94824.75;;;15.38;78.96
3968;BME280;9221;42.646;23.380;2023-05-09T00:40:21;94745.50;;;15.10;79.17
3968;BME280;9221;42.646;23.380;2023-05-09T00:42:47;94798.75;;;15.48;79.19
3968;BME280;9221;42.646;23.380;2023-05-09T00:45:12;94752.59;;;15.18;78.88
3968;BME280;9221;42.646;23.380;2023-05-09T00:47:38;94783.22;;;15.37;79.25
3968;BME280;9221;42.646;23.380;2023-05-09T00:50:03;94816.63;;;15.31;79.39
3968;BME280;9221;42.646;23.380;2023-05-09T00:52:31;94727.66;;;14.96;79.49
3968;BME280;9221;42.646;23.380;2023-05-09T00:54:57;94792.91;;;15.30;79.27
3968;BME280;9221;42.646;23.380;2023-05-09T00:57:24;94789.22;;;15.31;79.69
3968;BME280;9221;42.646;23.380;2023-05-09T00:59:49;94805.81;;;15.33;79.78
3968;BME280;9221;42.646;23.380;2023-05-09T01:02:16;94799.16;;;15.37;79.69
3968;BME280;9221;42.646;23.380;2023-05-09T01:04:43;94784.56;;;15.33;79.50
3968;BME280;9221;42.646;23.380;2023-05-09T01:07:16;94736.94;;;15.00;79.19
3968;BME280;9221;42.646;23.380;2023-05-09T01:12:33;94806.16;;;15.38;79.38
3968;BME280;9221;42.646;23.380;2023-05-09T01:15:07;94817.13;;;15.27;80.14
3968;BME280;9221;42.646;23.380;2023-05-09T01:20:36;94802.47;;;15.39;80.16
3968;BME280;9221;42.646;23.380;2023-05-09T01:28:35;94797.94;;;15.16;79.99
3968;BME280;9221;42.646;23.380;2023-05-09T01:31:08;94844.50;;;14.96;80.55
3968;BME280;9221;42.646;23.380;2023-05-09T01:33:37;94794.09;;;14.87;81.27
3968;BME280;9221;42.646;23.380;2023-05-09T01:36:07;94725.31;;;14.45;81.87
3968;BME280;9221;42.646;23.380;2023-05-09T01:38:36;94799.84;;;14.91;82.01
3968;BME280;9221;42.646;23.380;2023-05-09T01:41:01;94789.16;;;14.68;81.85
3968;BME280;9221;42.646;23.380;2023-05-09T01:43:31;94731.56;;;14.12;82.32
3968;BME280;9221;42.646;23.380;2023-05-09T01:45:58;94806.75;;;14.52;82.83
3968;BME280;9221;42.646;23.380;2023-05-09T01:48:24;94724.44;;;14.04;83.69
3968;BME280;9221;42.646;23.380;2023-05-09T01:50:52;94830.97;;;14.58;84.60
3968;BME280;9221;42.646;23.380;2023-05-09T01:53:19;94814.72;;;14.44;83.15
3968;BME280;9221;42.646;23.380;2023-05-09T01:55:46;94826.03;;;14.38;82.84
3968;BME280;9221;42.646;23.380;2023-05-09T01:58:13;94836.78;;;14.28;83.32
3968;BME280;9221;42.646;23.380;2023-05-09T02:00:41;94778.47;;;14.03;83.06
3968;BME280;9221;42.646;23.380;2023-05-09T02:03:08;94794.19;;;14.38;83.63
3968;BME280;9221;42.646;23.380;2023-05-09T02:05:33;94818.03;;;14.54;82.99
3968;BME280;9221;42.646;23.380;2023-05-09T02:08:00;94786.50;;;14.60;81.82
3968;BME280;9221;42.646;23.380;2023-05-09T02:10:27;94808.75;;;14.67;81.70
3968;BME280;9221;42.646;23.380;2023-05-09T02:12:53;94825.94;;;14.87;81.40
3968;BME280;9221;42.646;23.380;2023-05-09T02:15:20;94856.59;;;15.06;80.70
3968;BME280;9221;42.646;23.380;2023-05-09T02:17:45;94792.97;;;15.13;79.92
3968;BME280;9221;42.646;23.380;2023-05-09T02:20:11;94819.03;;;15.18;79.25
3968;BME280;9221;42.646;23.380;2023-05-09T02:22:38;94689.00;;;14.53;79.27
3968;BME280;9221;42.646;23.380;2023-05-09T02:25:06;94733.94;;;14.63;79.96
3968;BME280;9221;42.646;23.380;2023-05-09T02:27:33;94777.69;;;14.76;80.54
3968;BME280;9221;42.646;23.380;2023-05-09T02:30:02;94793.59;;;14.84;80.97
3968;BME280;9221;42.646;23.380;2023-05-09T02:32:30;94734.47;;;14.50;81.62
3968;BME280;9221;42.646;23.380;2023-05-09T02:34:57;94797.47;;;14.65;81.62
3968;BME280;9221;42.646;23.380;2023-05-09T02:37:25;94811.06;;;14.62;82.07
3968;BME280;9221;42.646;23.380;2023-05-09T02:39:51;94787.16;;;14.62;82.42
3968;BME280;9221;42.646;23.380;2023-05-09T02:42:21;94733.00;;;14.31;82.91
3968;BME280;9221;42.646;23.380;2023-05-09T02:44:50;94802.06;;;14.79;82.35
3968;BME280;9221;42.646;23.380;2023-05-09T02:47:15;94785.84;;;14.66;82.06
3968;BME280;9221;42.646;23.380;2023-05-09T02:49:41;94763.63;;;14.59;82.11
3968;BME280;9221;42.646;23.380;2023-05-09T02:52:06;94752.41;;;14.32;82.48
3968;BME280;9221;42.646;23.380;2023-05-09T02:54:32;94738.34;;;14.15;82.95
3968;BME280;9221;42.646;23.380;2023-05-09T02:56:57;94842.25;;;14.51;83.99
3968;BME280;9221;42.646;23.380;2023-05-09T02:59:24;94740.00;;;14.08;84.40
3968;BME280;9221;42.646;23.380;2023-05-09T03:01:50;94738.69;;;13.87;86.23
3968;BME280;9221;42.646;23.380;2023-05-09T03:04:15;94832.34;;;14.29;86.09
3968;BME280;9221;42.646;23.380;2023-05-09T03:06:40;94808.31;;;14.14;87.14
3968;BME280;9221;42.646;23.380;2023-05-09T03:09:06;94827.69;;;13.90;88.32
3968;BME280;9221;42.646;23.380;2023-05-09T03:11:31;94837.09;;;13.67;89.38
3968;BME280;9221;42.646;23.380;2023-05-09T03:13:56;94810.28;;;13.79;89.79
3968;BME280;9221;42.646;23.380;2023-05-09T03:16:22;94764.88;;;13.74;89.54
3968;BME280;9221;42.646;23.380;2023-05-09T03:18:47;94823.38;;;14.05;88.63
3968;BME280;9221;42.646;23.380;2023-05-09T03:21:13;94793.91;;;13.83;88.14
3968;BME280;9221;42.646;23.380;2023-05-09T03:23:38;94841.94;;;13.88;90.02
3968;BME280;9221;42.646;23.380;2023-05-09T03:26:04;94861.09;;;13.58;90.82
3968;BME280;9221;42.646;23.380;2023-05-09T03:28:29;94806.91;;;13.35;91.28
3968;BME280;9221;42.646;23.380;2023-05-09T03:30:55;94838.59;;;13.70;91.52
3968;BME280;9221;42.646;23.380;2023-05-09T03:33:20;94855.84;;;13.82;91.04
3968;BME280;9221;42.646;23.380;2023-05-09T03:35:46;94802.47;;;13.61;90.55
3968;BME280;9221;42.646;23.380;2023-05-09T03:38:11;94792.69;;;13.53;89.73
3968;BME280;9221;42.646;23.380;2023-05-09T03:40:37;94854.34;;;13.80;89.40
3968;BME280;9221;42.646;23.380;2023-05-09T03:43:02;94846.22;;;13.65;89.85
3968;BME280;9221;42.646;23.380;2023-05-09T03:45:27;94785.97;;;13.24;89.98
3968;BME280;9221;42.646;23.380;2023-05-09T03:47:53;94813.03;;;13.44;89.66
3968;BME280;9221;42.646;23.380;2023-05-09T03:50:18;94802.69;;;13.16;89.55
3968;BME280;9221;42.646;23.380;2023-05-09T03:52:43;94857.56;;;13.41;90.55
3968;BME280;9221;42.646;23.380;2023-05-09T03:55:09;94871.00;;;13.47;90.99
3968;BME280;9221;42.646;23.380;2023-05-09T03:57:34;94789.78;;;13.30;90.24
3968;BME280;9221;42.646;23.380;2023-05-09T04:00:01;94787.50;;;13.35;89.69
3968;BME280;9221;42.646;23.380;2023-05-09T04:02:26;94795.50;;;13.43;89.67
3968;BME280;9221;42.646;23.380;2023-05-09T04:04:52;94792.38;;;13.48;89.24
3968;BME280;9221;42.646;23.380;2023-05-09T04:07:18;94818.34;;;13.44;89.11
3968;BME280;9221;42.646;23.380;2023-05-09T04:09:45;94846.84;;;13.16;90.19
3968;BME280;9221;42.646;23.380;2023-05-09T04:12:10;94854.16;;;13.65;90.57
3968;BME280;9221;42.646;23.380;2023-05-09T04:14:35;94849.53;;;13.67;89.91
3968;BME280;9221;42.646;23.380;2023-05-09T04:17:01;94784.13;;;13.08;90.45
3968;BME280;9221;42.646;23.380;2023-05-09T04:19:26;94833.84;;;13.31;91.26
3968;BME280;9221;42.646;23.380;2023-05-09T04:21:52;94880.16;;;13.27;91.30
3968;BME280;9221;42.646;23.380;2023-05-09T04:24:17;94852.03;;;13.26;92.22
3968;BME280;9221;42.646;23.380;2023-05-09T04:26:43;94848.66;;;13.50;91.95
3968;BME280;9221;42.646;23.380;2023-05-09T04:29:08;94886.97;;;13.80;90.92
3968;BME280;9221;42.646;23.380;2023-05-09T04:31:33;94860.34;;;13.98;89.90
3968;BME280;9221;42.646;23.380;2023-05-09T04:34:00;94882.72;;;14.29;89.29
3968;BME280;9221;42.646;23.380;2023-05-09T04:36:25;94881.88;;;14.03;88.39
3968;BME280;9221;42.646;23.380;2023-05-09T04:38:52;94800.16;;;13.66;88.56
3968;BME280;9221;42.646;23.380;2023-05-09T04:41:17;94796.53;;;13.67;88.52
3968;BME280;9221;42.646;23.380;2023-05-09T04:43:43;94835.63;;;14.14;88.55
3968;BME280;9221;42.646;23.380;2023-05-09T04:46:08;94852.53;;;14.54;87.70
3968;BME280;9221;42.646;23.380;2023-05-09T04:48:34;94848.84;;;14.80;86.32
3968;BME280;9221;42.646;23.380;2023-05-09T04:51:00;94825.66;;;14.58;85.12
3968;BME280;9221;42.646;23.380;2023-05-09T04:53:25;94889.38;;;14.74;84.69
3968;BME280;9221;42.646;23.380;2023-05-09T04:55:52;94851.88;;;14.69;84.93
3968;BME280;9221;42.646;23.380;2023-05-09T04:58:18;94857.16;;;14.77;85.18
3968;BME280;9221;42.646;23.380;2023-05-09T05:00:44;94870.75;;;14.91;84.77
3968;BME280;9221;42.646;23.380;2023-05-09T05:03:09;94863.03;;;15.12;84.25
3968;BME280;9221;42.646;23.380;2023-05-09T05:05:35;94792.13;;;14.73;83.38
3968;BME280;9221;42.646;23.380;2023-05-09T05:08:00;94831.25;;;14.87;83.23
3968;BME280;9221;42.646;23.380;2023-05-09T05:10:25;94815.03;;;14.74;82.75
3968;BME280;9221;42.646;23.380;2023-05-09T05:12:51;94867.72;;;15.02;82.75
3968;BME280;9221;42.646;23.380;2023-05-09T05:15:16;94836.53;;;14.96;82.82
3968;BME280;9221;42.646;23.380;2023-05-09T05:17:43;94794.00;;;14.64;82.96
3968;BME280;9221;42.646;23.380;2023-05-09T05:20:09;94923.34;;;14.79;83.24
3968;BME280;9221;42.646;23.380;2023-05-09T05:22:35;94857.34;;;14.43;84.23
3968;BME280;9221;42.646;23.380;2023-05-09T05:25:00;94886.72;;;14.66;84.26
3968;BME280;9221;42.646;23.380;2023-05-09T05:27:27;94794.19;;;14.38;84.44
3968;BME280;9221;42.646;23.380;2023-05-09T05:29:53;94778.94;;;14.32;83.78
3968;BME280;9221;42.646;23.380;2023-05-09T05:32:18;94867.44;;;14.55;84.45
3968;BME280;9221;42.646;23.380;2023-05-09T05:34:43;94813.78;;;14.20;84.89
3968;BME280;9221;42.646;23.380;2023-05-09T05:37:09;94864.81;;;14.39;85.74
3968;BME280;9221;42.646;23.380;2023-05-09T05:39:34;94875.44;;;14.22;86.24
3968;BME280;9221;42.646;23.380;2023-05-09T05:42:00;94843.75;;;14.21;86.60
3968;BME280;9221;42.646;23.380;2023-05-09T05:44:25;94943.75;;;14.37;85.50
3968;BME280;9221;42.646;23.380;2023-05-09T05:46:50;94801.84;;;13.67;85.90
3968;BME280;9221;42.646;23.380;2023-05-09T05:49:16;94900.25;;;13.97;87.10
3968;BME280;9221;42.646;23.380;2023-05-09T05:51:42;94872.13;;;14.04;86.85
3968;BME280;9221;42.646;23.380;2023-05-09T05:54:07;94864.16;;;14.04;86.41
3968;BME280;9221;42.646;23.380;2023-05-09T05:56:32;94892.00;;;14.16;86.40
3968;BME280;9221;42.646;23.380;2023-05-09T05:58:58;94816.44;;;13.87;85.45
3968;BME280;9221;42.646;23.380;2023-05-09T06:01:23;94809.13;;;13.90;85.13
3968;BME280;9221;42.646;23.380;2023-05-09T06:03:49;94833.16;;;14.13;84.04
3968;BME280;9221;42.646;23.380;2023-05-09T06:06:20;94838.97;;;14.16;83.18
3968;BME280;9221;42.646;23.380;2023-05-09T06:08:46;94804.00;;;14.04;84.19
3968;BME280;9221;42.646;23.380;2023-05-09T06:11:14;94801.50;;;14.19;83.99
3968;BME280;9221;42.646;23.380;2023-05-09T06:13:40;94822.69;;;14.44;82.67
3968;BME280;9221;42.646;23.380;2023-05-09T06:16:05;94826.66;;;14.65;81.62
3968;BME280;9221;42.646;23.380;2023-05-09T06:18:31;94871.22;;;15.02;80.82
3968;BME280;9221;42.646;23.380;2023-05-09T06:20:57;94866.59;;;14.88;81.93
3968;BME280;9221;42.646;23.380;2023-05-09T06:23:22;94772.06;;;14.54;81.60
3968;BME280;9221;42.646;23.380;2023-05-09T06:25:47;94814.63;;;14.94;80.51
3968;BME280;9221;42.646;23.380;2023-05-09T06:28:13;94815.06;;;15.14;80.01
3968;BME280;9221;42.646;23.380;2023-05-09T06:30:39;94855.22;;;15.19;79.11
3968;BME280;9221;42.646;23.380;2023-05-09T06:33:04;94878.22;;;15.35;79.37
3968;BME280;9221;42.646;23.380;2023-05-09T06:35:30;94897.53;;;15.29;79.49
3968;BME280;9221;42.646;23.380;2023-05-09T06:37:55;94821.34;;;14.65;80.04
3968;BME280;9221;42.646;23.380;2023-05-09T06:40:20;94864.31;;;14.77;80.79
3968;BME280;9221;42.646;23.380;2023-05-09T06:42:46;94863.16;;;14.71;80.49
3968;BME280;9221;42.646;23.380;2023-05-09T06:45:11;94862.81;;;14.74;80.72
3968;BME280;9221;42.646;23.380;2023-05-09T06:47:37;94832.97;;;14.39;80.05
3968;BME280;9221;42.646;23.380;2023-05-09T06:50:02;94877.00;;;15.06;79.32
3968;BME280;9221;42.646;23.380;2023-05-09T06:52:28;94808.06;;;14.65;79.66
3968;BME280;9221;42.646;23.380;2023-05-09T06:54:53;94812.91;;;14.53;79.71
3968;BME280;9221;42.646;23.380;2023-05-09T06:57:18;94879.25;;;14.78;79.89
3968;BME280;9221;42.646;23.380;2023-05-09T06:59:44;94896.66;;;14.64;80.28
3968;BME280;9221;42.646;23.380;2023-05-09T07:02:10;94864.81;;;14.64;79.94
3968;BME280;9221;42.646;23.380;2023-05-09T07:04:35;94809.56;;;14.59;77.36
3968;BME280;9221;42.646;23.380;2023-05-09T07:07:08;94862.09;;;14.97;76.27
3968;BME280;9221;42.646;23.380;2023-05-09T07:09:34;94898.78;;;14.93;76.30
3968;BME280;9221;42.646;23.380;2023-05-09T07:11:59;94881.22;;;14.84;77.20
3968;BME280;9221;42.646;23.380;2023-05-09T07:14:25;94814.06;;;14.67;76.79
3968;BME280;9221;42.646;23.380;2023-05-09T07:16:51;94893.94;;;15.13;76.21
3968;BME280;9221;42.646;23.380;2023-05-09T07:19:16;94793.44;;;14.77;74.30
3968;BME280;9221;42.646;23.380;2023-05-09T07:21:42;94865.75;;;15.44;73.62
3968;BME280;9221;42.646;23.380;2023-05-09T07:24:07;94878.41;;;15.65;73.36
3968;BME280;9221;42.646;23.380;2023-05-09T07:26:34;94887.81;;;15.76;73.45
3968;BME280;9221;42.646;23.380;2023-05-09T07:29:00;94817.09;;;15.35;73.58
3968;BME280;9221;42.646;23.380;2023-05-09T07:31:26;94869.69;;;15.87;73.85
3968;BME280;9221;42.646;23.380;2023-05-09T07:33:51;94866.56;;;16.07;73.85
3968;BME280;9221;42.646;23.380;2023-05-09T07:36:16;94800.97;;;15.68;72.23
3968;BME280;9221;42.646;23.380;2023-05-09T07:38:42;94809.72;;;15.77;71.34
3968;BME280;9221;42.646;23.380;2023-05-09T07:41:07;94852.06;;;16.10;71.60
3968;BME280;9221;42.646;23.380;2023-05-09T07:43:33;94814.06;;;16.01;71.65
3968;BME280;9221;42.646;23.380;2023-05-09T07:45:58;94806.06;;;15.78;71.54
3968;BME280;9221;42.646;23.380;2023-05-09T07:48:23;94900.19;;;16.00;72.27
3968;BME280;9221;42.646;23.380;2023-05-09T07:50:49;94816.72;;;15.46;73.22
3968;BME280;9221;42.646;23.380;2023-05-09T07:53:14;94903.72;;;15.52;73.88
3968;BME280;9221;42.646;23.380;2023-05-09T07:55:40;94857.63;;;15.37;74.59
3968;BME280;9221;42.646;23.380;2023-05-09T07:58:05;94880.59;;;15.61;74.43
3968;BME280;9221;42.646;23.380;2023-05-09T08:00:31;94865.78;;;15.67;73.99
3968;BME280;9221;42.646;23.380;2023-05-09T08:02:56;94876.72;;;15.72;73.21
3968;BME280;9221;42.646;23.380;2023-05-09T08:05:21;94885.63;;;15.87;73.52
3968;BME280;9221;42.646;23.380;2023-05-09T08:07:47;94862.78;;;15.70;73.29
3968;BME280;9221;42.646;23.380;2023-05-09T08:10:12;94835.53;;;15.05;73.40
3968;BME280;9221;42.646;23.380;2023-05-09T08:12:38;94865.66;;;15.92;72.28
3968;BME280;9221;42.646;23.380;2023-05-09T08:15:04;94800.56;;;15.79;72.22
3968;BME280;9221;42.646;23.380;2023-05-09T08:17:29;94812.09;;;15.95;71.87
3968;BME280;9221;42.646;23.380;2023-05-09T08:19:55;94911.63;;;16.70;71.06
3968;BME280;9221;42.646;23.380;2023-05-09T08:22:20;94872.13;;;17.27;70.23
3968;BME280;9221;42.646;23.380;2023-05-09T08:24:46;94876.19;;;17.74;67.60
3968;BME280;9221;42.646;23.380;2023-05-09T08:27:12;94855.66;;;18.11;65.62
3968;BME280;9221;42.646;23.380;2023-05-09T08:29:39;94814.75;;;18.25;64.35
3968;BME280;9221;42.646;23.380;2023-05-09T08:32:04;94827.22;;;17.97;62.47
3968;BME280;9221;42.646;23.380;2023-05-09T08:34:30;94818.41;;;17.81;64.14
3968;BME280;9221;42.646;23.380;2023-05-09T08:36:59;94870.56;;;17.84;64.67
3968;BME280;9221;42.646;23.380;2023-05-09T08:39:24;94807.91;;;16.91;65.23
3968;BME280;9221;42.646;23.380;2023-05-09T08:41:50;94814.03;;;16.62;67.21
3968;BME280;9221;42.646;23.380;2023-05-09T08:44:17;94844.25;;;16.84;67.53
3968;BME280;9221;42.646;23.380;2023-05-09T08:46:44;94872.34;;;16.72;67.68
3968;BME280;9221;42.646;23.380;2023-05-09T08:49:12;94897.03;;;17.04;67.57
3968;BME280;9221;42.646;23.380;2023-05-09T08:51:39;94789.41;;;16.60;67.94
3968;BME280;9221;42.646;23.380;2023-05-09T08:54:05;94867.16;;;17.23;67.03
3968;BME280;9221;42.646;23.380;2023-05-09T08:56:30;94887.13;;;16.98;67.77
3968;BME280;9221;42.646;23.380;2023-05-09T08:58:56;94897.56;;;16.61;68.54
3968;BME280;9221;42.646;23.380;2023-05-09T09:01:24;94866.94;;;16.42;68.83
3968;BME280;9221;42.646;23.380;2023-05-09T09:03:51;94813.63;;;16.12;69.79
3968;BME280;9221;42.646;23.380;2023-05-09T09:06:17;94809.63;;;16.16;70.35
3968;BME280;9221;42.646;23.380;2023-05-09T09:08:44;94853.88;;;16.55;69.49
3968;BME280;9221;42.646;23.380;2023-05-09T09:11:14;94868.63;;;16.43;69.97
3968;BME280;9221;42.646;23.380;2023-05-09T09:13:42;94831.50;;;16.27;70.63
3968;BME280;9221;42.646;23.380;2023-05-09T09:16:13;94843.03;;;15.96;70.45
3968;BME280;9221;42.646;23.380;2023-05-09T09:18:41;94886.53;;;15.71;72.49
3968;BME280;9221;42.646;23.380;2023-05-09T09:21:09;94806.41;;;15.43;72.79
3968;BME280;9221;42.646;23.380;2023-05-09T09:23:38;94875.13;;;15.94;72.89
3968;BME280;9221;42.646;23.380;2023-05-09T09:26:04;94825.69;;;15.45;72.36
3968;BME280;9221;42.646;23.380;2023-05-09T09:28:29;94863.59;;;15.39;74.05
3968;BME280;9221;42.646;23.380;2023-05-09T09:30:55;94879.25;;;15.34;75.11
3968;BME280;9221;42.646;23.380;2023-05-09T09:33:25;94878.94;;;15.20;75.34
3968;BME280;9221;42.646;23.380;2023-05-09T09:35:53;94777.94;;;14.33;75.85
3968;BME280;9221;42.646;23.380;2023-05-09T09:38:22;94882.34;;;14.98;76.09
3968;BME280;9221;42.646;23.380;2023-05-09T09:43:16;94918.78;;;15.29;75.31
3968;BME280;9221;42.646;23.380;2023-05-09T09:45:41;94868.28;;;15.29;75.12
3968;BME280;9221;42.646;23.380;2023-05-09T09:48:07;94874.88;;;15.41;73.95
3968;BME280;9221;42.646;23.380;2023-05-09T09:50:32;94876.47;;;15.59;73.40
3968;BME280;9221;42.646;23.380;2023-05-09T09:52:57;94865.47;;;15.62;73.58
3968;BME280;9221;42.646;23.380;2023-05-09T09:55:25;94880.69;;;15.84;73.15
3968;BME280;9221;42.646;23.380;2023-05-09T09:57:51;94884.22;;;16.46;71.48
3968;BME280;9221;42.646;23.380;2023-05-09T10:00:18;94869.78;;;16.79;69.23
3968;BME280;9221;42.646;23.380;2023-05-09T10:02:53;94908.19;;;16.84;69.38
3968;BME280;9221;42.646;23.380;2023-05-09T10:05:23;94893.91;;;16.77;70.06
3968;BME280;9221;42.646;23.380;2023-05-09T10:08:02;94857.59;;;16.46;71.37
3968;BME280;9221;42.646;23.380;2023-05-09T10:10:32;94892.91;;;16.40;72.98
3968;BME280;9221;42.646;23.380;2023-05-09T10:13:09;94864.38;;;15.87;74.32
3968;BME280;9221;42.646;23.380;2023-05-09T10:15:36;94908.72;;;15.55;75.61
3968;BME280;9221;42.646;23.380;2023-05-09T10:18:02;94882.16;;;15.47;76.46
3968;BME280;9221;42.646;23.380;2023-05-09T10:20:29;94871.28;;;15.34;76.78
3968;BME280;9221;42.646;23.380;2023-05-09T10:22:57;94860.84;;;15.16;77.14
3968;BME280;9221;42.646;23.380;2023-05-09T10:25:37;94828.28;;;14.82;77.48
3968;BME280;9221;42.646;23.380;2023-05-09T10:28:17;94822.28;;;14.80;77.59
3968;BME280;9221;42.646;23.380;2023-05-09T10:33:08;94870.56;;;14.92;78.56
3968;BME280;9221;42.646;23.380;2023-05-09T10:35:44;94810.94;;;14.38;79.90
3968;BME280;9221;42.646;23.380;2023-05-09T10:38:11;94872.09;;;14.78;80.02
3968;BME280;9221;42.646;23.380;2023-05-09T10:40:37;94892.53;;;14.53;79.58
3968;BME280;9221;42.646;23.380;2023-05-09T10:43:04;94840.25;;;14.62;79.98
3968;BME280;9221;42.646;23.380;2023-05-09T10:45:30;94891.63;;;15.02;78.72
3968;BME280;9221;42.646;23.380;2023-05-09T10:47:56;94869.31;;;14.63;79.05
3968;BME280;9221;42.646;23.380;2023-05-09T10:50:22;94849.38;;;14.43;80.03
3968;BME280;9221;42.646;23.380;2023-05-09T10:55:55;94870.78;;;14.66;79.45
3968;BME280;9221;42.646;23.380;2023-05-09T10:58:31;94804.47;;;14.25;80.13
3968;BME280;9221;42.646;23.380;2023-05-09T11:01:04;94871.75;;;14.56;80.38
3968;BME280;9221;42.646;23.380;2023-05-09T11:03:52;94866.13;;;14.84;79.96
3968;BME280;9221;42.646;23.380;2023-05-09T11:09:34;94934.84;;;14.63;79.73
3968;BME280;9221;42.646;23.380;2023-05-09T11:14:31;94907.84;;;15.15;78.63
3968;BME280;9221;42.646;23.380;2023-05-09T11:17:05;94798.66;;;15.02;76.93
3968;BME280;9221;42.646;23.380;2023-05-09T11:22:21;94872.88;;;15.43;77.11
3968;BME280;9221;42.646;23.380;2023-05-09T11:24:59;94879.13;;;15.19;76.97
3968;BME280;9221;42.646;23.380;2023-05-09T11:27:26;94894.53;;;15.23;77.16
3968;BME280;9221;42.646;23.380;2023-05-09T11:30:03;94842.09;;;15.17;75.88
3968;BME280;9221;42.646;23.380;2023-05-09T11:32:33;94943.38;;;15.14;77.19
3968;BME280;9221;42.646;23.380;2023-05-09T11:35:12;94832.72;;;14.98;76.88
3968;BME280;9221;42.646;23.380;2023-05-09T11:37:50;94868.94;;;15.31;76.00
3968;BME280;9221;42.646;23.380;2023-05-09T11:40:18;94871.78;;;15.29;75.78
3968;BME280;9221;42.646;23.380;2023-05-09T11:42:49;94864.53;;;15.54;76.00
3968;BME280;9221;42.646;23.380;2023-05-09T11:45:16;94774.13;;;15.00;74.94
3968;BME280;9221;42.646;23.380;2023-05-09T11:47:41;94866.66;;;15.90;74.58
3968;BME280;9221;42.646;23.380;2023-05-09T11:50:08;94803.50;;;15.38;73.34
3968;BME280;9221;42.646;23.380;2023-05-09T11:52:34;94870.88;;;15.45;73.30
3968;BME280;9221;42.646;23.380;2023-05-09T11:55:00;94856.78;;;14.97;74.87
3968;BME280;9221;42.646;23.380;2023-05-09T11:57:27;94891.00;;;14.92;76.25
3968;BME280;9221;42.646;23.380;2023-05-09T11:59:53;94862.78;;;14.91;76.71
3968;BME280;9221;42.646;23.380;2023-05-09T12:02:18;94868.69;;;15.17;75.97
3968;BME280;9221;42.646;23.380;2023-05-09T12:04:46;94860.78;;;14.93;75.89
3968;BME280;9221;42.646;23.380;2023-05-09T12:07:12;94904.59;;;14.97;76.55
3968;BME280;9221;42.646;23.380;2023-05-09T12:09:37;94901.56;;;15.08;77.08
3968;BME280;9221;42.646;23.380;2023-05-09T12:12:10;94791.41;;;14.96;76.46
3968;BME280;9221;42.646;23.380;2023-05-09T12:14:36;94880.88;;;15.35;75.42
3968;BME280;9221;42.646;23.380;2023-05-09T12:17:01;94878.88;;;15.37;75.40
3968;BME280;9221;42.646;23.380;2023-05-09T12:19:27;94876.94;;;15.22;75.70
3968;BME280;9221;42.646;23.380;2023-05-09T12:21:57;94867.09;;;14.92;75.93
3968;BME280;9221;42.646;23.380;2023-05-09T12:24:26;94714.84;;;13.79;76.03
3968;BME280;9221;42.646;23.380;2023-05-09T12:26:53;94850.38;;;14.50;77.58
3968;BME280;9221;42.646;23.380;2023-05-09T12:29:23;94896.81;;;14.46;78.25
3968;BME280;9221;42.646;23.380;2023-05-09T12:31:49;94801.69;;;13.93;78.68
3968;BME280;9221;42.646;23.380;2023-05-09T12:34:16;94862.84;;;14.25;79.98
3968;BME280;9221;42.646;23.380;2023-05-09T12:36:46;94850.91;;;13.96;80.05
3968;BME280;9221;42.646;23.380;2023-05-09T12:39:18;94799.31;;;13.57;80.40
3968;BME280;9221;42.646;23.380;2023-05-09T12:41:47;94793.50;;;13.37;81.23
3968;BME280;9221;42.646;23.380;2023-05-09T12:44:20;94811.56;;;13.50;81.93
3968;BME280;9221;42.646;23.380;2023-05-09T12:47:00;94757.50;;;13.10;81.17
3968;BME280;9221;42.646;23.380;2023-05-09T12:49:27;94819.16;;;13.45;81.79
3968;BME280;9221;42.646;23.380;2023-05-09T12:51:54;94830.66;;;13.19;82.45
3968;BME280;9221;42.646;23.380;2023-05-09T12:54:27;94838.78;;;13.26;83.34
3968;BME280;9221;42.646;23.380;2023-05-09T12:56:54;94793.06;;;13.07;83.70
3968;BME280;9221;42.646;23.380;2023-05-09T12:59:26;94859.91;;;13.44;84.07
3968;BME280;9221;42.646;23.380;2023-05-09T13:01:54;94787.41;;;13.02;84.37
3968;BME280;9221;42.646;23.380;2023-05-09T13:04:21;94851.47;;;13.48;84.49
3968;BME280;9221;42.646;23.380;2023-05-09T13:06:56;94868.88;;;13.59;84.06
3968;BME280;9221;42.646;23.380;2023-05-09T13:09:24;94845.84;;;13.51;84.28
3968;BME280;9221;42.646;23.380;2023-05-09T13:11:51;94793.13;;;13.32;84.36
3968;BME280;9221;42.646;23.380;2023-05-09T13:14:17;94879.00;;;13.72;83.79
3968;BME280;9221;42.646;23.380;2023-05-09T13:16:43;94831.81;;;13.16;83.86
3968;BME280;9221;42.646;23.380;2023-05-09T13:19:09;94873.19;;;13.52;84.16
3968;BME280;9221;42.646;23.380;2023-05-09T13:21:35;94774.34;;;13.00;85.28
3968;BME280;9221;42.646;23.380;2023-05-09T13:24:01;94843.28;;;13.33;86.18
3968;BME280;9221;42.646;23.380;2023-05-09T13:26:27;94869.56;;;13.27;86.78
3968;BME280;9221;42.646;23.380;2023-05-09T13:28:53;94722.41;;;12.57;87.02
3968;BME280;9221;42.646;23.380;2023-05-09T13:31:19;94761.22;;;12.82;86.17
3968;BME280;9221;42.646;23.380;2023-05-09T13:33:44;94784.53;;;12.87;86.46
3968;BME280;9221;42.646;23.380;2023-05-09T13:36:09;94833.97;;;13.21;86.56